Time;durP1;ratioP1;P1;durP2;ratioP2;P2;SDS_P1;SDS_P2;PMS_P1;PMS_P2;Temp;Humidity;BMP_temperature;BMP_pressure;BME280_temperature;BME280_humidity;BME280_pressure;Samples;Min_cycle;Max_cycle;Signal;HPM_P1;HPM_P2
2023/01/10 00:00:12;;;;;;;1.50;1.40;;;;;15.80;100013.00;;;;2078360;28;20205;-55
2023/01/10 00:01:12;;;;;;;2.00;1.27;;;;;15.80;100014.00;;;;2078413;28;20850;-55
2023/01/10 00:02:13;;;;;;;2.00;1.00;;;;;15.80;100017.00;;;;2077060;28;20456;-54
2023/01/10 00:03:13;;;;;;;1.87;1.10;;;;;15.80;100015.00;;;;2078141;28;20229;-55
2023/01/10 00:04:13;;;;;;;1.50;1.30;;;;;15.80;100027.00;;;;2078598;28;20236;-55
2023/01/10 00:05:14;;;;;;;2.00;1.23;;;;;15.80;100026.00;;;;2078466;28;20213;-54
2023/01/10 00:06:15;;;;;;;2.40;1.35;;;;;15.80;100030.00;;;;2078193;28;20232;-54
2023/01/10 00:07:15;;;;;;;2.30;1.47;;;;;15.80;100031.00;;;;2077973;28;20210;-54
2023/01/10 00:08:15;;;;;;;1.90;1.50;;;;;15.80;100039.00;;;;2078474;28;20220;-54
2023/01/10 00:09:16;;;;;;;1.23;1.03;;;;;15.80;100037.00;;;;2078222;28;20759;-54
2023/01/10 00:10:16;;;;;;;2.10;1.57;;;;;15.80;100043.00;;;;2078137;28;20220;-55
2023/01/10 00:13:55;;;;;;;1.30;1.00;;;;;15.80;100045.00;;;;2077054;28;20726;-54
2023/01/10 00:14:55;;;;;;;1.10;0.90;;;;;15.80;100047.00;;;;2075987;28;20217;-54
2023/01/10 00:15:56;;;;;;;2.03;1.57;;;;;15.80;100056.00;;;;2072195;28;20234;-54
2023/01/10 00:16:56;;;;;;;1.97;1.50;;;;;15.80;100060.00;;;;2078441;28;20236;-54
2023/01/10 00:17:56;;;;;;;1.67;1.20;;;;;15.80;100059.00;;;;2077942;28;20640;-54
2023/01/10 00:18:56;;;;;;;2.53;1.40;;;;;15.80;100064.00;;;;2078309;28;20763;-54
2023/01/10 00:19:57;;;;;;;1.87;1.50;;;;;15.80;100061.00;;;;2078231;28;20240;-54
2023/01/10 00:20:57;;;;;;;1.33;1.13;;;;;15.80;100064.00;;;;2078026;28;20635;-54
2023/01/10 00:22:02;;;;;;;1.73;1.60;;;;;15.80;100068.00;;;;2076936;28;20218;-54
2023/01/10 00:23:03;;;;;;;1.33;0.93;;;;;15.80;100063.00;;;;2075147;28;20229;-54
2023/01/10 00:24:20;;;;;;;1.57;1.27;;;;;15.80;100073.00;;;;2078066;28;20336;-54
2023/01/10 00:25:20;;;;;;;1.48;1.27;;;;;15.80;100073.00;;;;2072472;28;20487;-55
2023/01/10 00:26:21;;;;;;;1.83;1.20;;;;;15.80;100078.00;;;;2078121;28;20209;-54
2023/01/10 00:27:21;;;;;;;2.03;1.20;;;;;15.80;100080.00;;;;2077971;28;20220;-54
2023/01/10 00:28:22;;;;;;;2.00;1.20;;;;;15.80;100081.00;;;;2077909;28;20264;-54
2023/01/10 00:29:34;;;;;;;1.00;0.90;;;;;15.80;100082.00;;;;2078094;28;20583;-54
2023/01/10 00:30:34;;;;;;;1.80;1.30;;;;;15.80;100081.00;;;;2077487;28;20541;-54
2023/01/10 00:31:34;;;;;;;1.73;1.17;;;;;15.80;100087.00;;;;2053483;28;20258;-54
2023/01/10 00:32:34;;;;;;;1.30;1.20;;;;;15.80;100095.00;;;;2050754;28;20259;-54
2023/01/10 00:33:35;;;;;;;1.87;1.30;;;;;15.80;100090.00;;;;2076184;28;20225;-54
2023/01/10 00:34:35;;;;;;;1.40;1.30;;;;;15.80;100093.00;;;;2078030;28;20225;-54
2023/01/10 00:35:36;;;;;;;2.10;1.40;;;;;15.80;100099.00;;;;2077992;28;20279;-54
2023/01/10 00:36:36;;;;;;;2.20;1.53;;;;;15.80;100106.00;;;;2076469;28;20240;-54
2023/01/10 00:37:38;;;;;;;1.90;1.00;;;;;15.80;100108.00;;;;2077838;28;20300;-54
2023/01/10 00:38:38;;;;;;;3.08;1.33;;;;;15.80;100112.00;;;;2077522;28;20846;-54
2023/01/10 00:39:38;;;;;;;2.40;1.37;;;;;15.80;100106.00;;;;2078081;28;20213;-54
2023/01/10 00:40:39;;;;;;;1.57;1.00;;;;;15.80;100115.00;;;;2077868;28;20217;-54
2023/01/10 00:44:37;;;;;;;1.52;1.10;;;;;15.80;100112.00;;;;2076423;28;20292;-54
2023/01/10 00:45:37;;;;;;;1.33;1.20;;;;;15.80;100112.00;;;;2076811;28;20663;-53
2023/01/10 00:46:38;;;;;;;2.03;1.57;;;;;15.80;100114.00;;;;2069565;28;20714;-54
2023/01/10 00:47:38;;;;;;;1.70;1.33;;;;;15.80;100117.00;;;;2071479;28;20256;-54
2023/01/10 00:48:39;;;;;;;1.77;1.27;;;;;15.80;100123.00;;;;2076763;28;20579;-54
2023/01/10 00:49:40;;;;;;;1.77;1.15;;;;;15.80;100114.00;;;;2076632;28;20524;-54
2023/01/10 00:50:40;;;;;;;3.23;1.23;;;;;15.80;100116.00;;;;2078007;28;20689;-54
2023/01/10 00:51:41;;;;;;;2.73;1.27;;;;;15.80;100123.00;;;;2078148;28;20765;-54
2023/01/10 00:52:42;;;;;;;1.48;1.20;;;;;15.80;100113.00;;;;2077224;28;20232;-54
2023/01/10 00:53:42;;;;;;;1.80;1.30;;;;;15.80;100121.00;;;;2077452;28;20304;-54
2023/01/10 00:54:42;;;;;;;1.57;1.23;;;;;15.80;100131.00;;;;2077036;28;20225;-54
2023/01/10 00:55:43;;;;;;;2.23;1.27;;;;;15.80;100124.00;;;;2075211;28;20226;-54
2023/01/10 00:56:43;;;;;;;1.60;1.17;;;;;15.80;100131.00;;;;2085337;28;20213;-54
2023/01/10 00:57:43;;;;;;;1.70;1.30;;;;;15.80;100126.00;;;;2078633;28;20217;-54
2023/01/10 00:58:44;;;;;;;1.60;1.30;;;;;15.80;100135.00;;;;2078018;28;20218;-54
2023/01/10 00:59:45;;;;;;;1.20;1.00;;;;;15.80;100126.00;;;;2077716;28;20598;-54
2023/01/10 01:00:45;;;;;;;2.90;1.08;;;;;15.80;100135.00;;;;2077971;28;20267;-54
2023/01/10 01:01:46;;;;;;;2.07;1.30;;;;;15.80;100137.00;;;;2077470;28;20637;-54
2023/01/10 01:02:47;;;;;;;1.60;1.20;;;;;15.80;100136.00;;;;2077245;28;20244;-54
2023/01/10 01:03:47;;;;;;;1.30;1.20;;;;;15.80;100146.00;;;;2077750;28;20587;-54
2023/01/10 01:04:47;;;;;;;2.33;1.37;;;;;15.80;100145.00;;;;2077981;28;20228;-54
2023/01/10 01:05:48;;;;;;;2.17;1.37;;;;;15.80;100137.00;;;;2077694;28;20309;-54
2023/01/10 01:06:49;;;;;;;2.20;1.07;;;;;15.80;100149.00;;;;2077906;28;20221;-54
2023/01/10 01:07:50;;;;;;;2.40;1.33;;;;;15.80;100146.00;;;;2077040;28;20240;-56
2023/01/10 01:08:50;;;;;;;1.63;1.53;;;;;15.80;100145.00;;;;2069129;28;20600;-55
2023/01/10 01:11:09;;;;;;;1.50;1.13;;;;;15.80;100157.00;;;;2077468;28;20244;-54
2023/01/10 01:12:10;;;;;;;1.57;1.10;;;;;15.80;100151.00;;;;2076043;28;20673;-54
2023/01/10 01:13:18;;;;;;;1.63;1.20;;;;;15.80;100164.00;;;;2077908;28;20217;-54
2023/01/10 01:14:18;;;;;;;1.30;1.00;;;;;15.80;100165.00;;;;2077795;28;20284;-54
2023/01/10 01:15:19;;;;;;;1.53;1.07;;;;;15.80;100164.00;;;;2078105;28;20214;-54
2023/01/10 01:16:20;;;;;;;1.70;1.60;;;;;15.80;100172.00;;;;2077613;28;20327;-54
2023/01/10 01:17:20;;;;;;;1.30;1.20;;;;;15.80;100180.00;;;;2078018;28;20856;-54
2023/01/10 01:18:20;;;;;;;2.10;1.57;;;;;15.80;100181.00;;;;2074209;28;20228;-54
2023/01/10 01:19:21;;;;;;;1.57;1.20;;;;;15.80;100179.00;;;;2077830;28;20817;-54
2023/01/10 01:20:21;;;;;;;1.83;1.30;;;;;15.80;100183.00;;;;2073448;28;21061;-54
2023/01/10 01:21:26;;;;;;;2.00;1.50;;;;;15.80;100190.00;;;;2077408;28;20686;-55
2023/01/10 01:22:27;;;;;;;1.95;1.30;;;;;15.80;100188.00;;;;2076934;28;20224;-54
2023/01/10 01:23:28;;;;;;;2.27;1.30;;;;;15.80;100195.00;;;;2077930;28;20665;-56
2023/01/10 01:24:28;;;;;;;1.60;1.37;;;;;15.80;100192.00;;;;2077826;28;20718;-55
2023/01/10 01:25:28;;;;;;;2.00;1.10;;;;;15.80;100200.00;;;;2077851;28;20830;-55
2023/01/10 01:26:28;;;;;;;1.80;1.40;;;;;15.80;100202.00;;;;2078906;28;20215;-55
2023/01/10 01:27:30;;;;;;;1.43;1.13;;;;;15.80;100198.00;;;;2079467;28;20210;-55
2023/01/10 01:28:30;;;;;;;1.30;1.10;;;;;15.60;100197.00;;;;2079419;28;20202;-55
2023/01/10 01:29:30;;;;;;;1.67;1.10;;;;;15.80;100200.00;;;;2079508;28;20209;-55
2023/01/10 01:30:31;;;;;;;2.00;1.60;;;;;15.80;100202.00;;;;2073558;28;20284;-54
2023/01/10 01:31:31;;;;;;;1.70;1.23;;;;;15.80;100195.00;;;;2079487;28;20220;-55
2023/01/10 01:32:31;;;;;;;2.30;1.40;;;;;15.70;100203.00;;;;2077950;28;20283;-54
2023/01/10 01:33:32;;;;;;;1.37;1.27;;;;;15.70;100200.00;;;;2079220;28;20213;-54
2023/01/10 01:34:32;;;;;;;1.33;1.00;;;;;15.80;100201.00;;;;2079339;28;20701;-54
2023/01/10 01:35:32;;;;;;;1.93;1.17;;;;;15.80;100203.00;;;;2074580;28;20214;-55
2023/01/10 01:36:33;;;;;;;1.43;1.10;;;;;15.80;100208.00;;;;2068953;28;20206;-54
2023/01/10 01:37:33;;;;;;;1.67;1.20;;;;;15.80;100216.00;;;;2086415;28;20347;-54
2023/01/10 01:38:33;;;;;;;2.20;1.37;;;;;15.70;100214.00;;;;2081990;28;20210;-55
2023/01/10 01:39:34;;;;;;;2.20;1.20;;;;;15.80;100210.00;;;;2079151;28;20640;-55
2023/01/10 01:40:35;;;;;;;2.23;1.17;;;;;15.80;100217.00;;;;2079171;28;20217;-54
2023/01/10 01:42:56;;;;;;;2.63;1.15;;;;;15.80;100219.00;;;;2079190;28;20443;-54
2023/01/10 01:44:12;;;;;;;2.67;1.63;;;;;15.80;100223.00;;;;2078710;28;20288;-55
2023/01/10 01:45:21;;;;;;;2.30;1.35;;;;;15.80;100220.00;;;;2078402;28;20217;-54
2023/01/10 01:46:21;;;;;;;1.40;1.27;;;;;15.80;100231.00;;;;2078579;28;20271;-54
2023/01/10 01:47:24;;;;;;;1.63;1.13;;;;;15.70;100226.00;;;;2078282;28;20750;-54
2023/01/10 01:48:35;;;;;;;2.20;1.50;;;;;15.70;100229.00;;;;2070326;28;20215;-54
2023/01/10 01:49:38;;;;;;;1.65;1.10;;;;;15.80;100239.00;;;;2062997;28;20222;-54
2023/01/10 01:50:42;;;;;;;2.33;1.23;;;;;15.80;100238.00;;;;2070767;28;20206;-56
2023/01/10 01:51:44;;;;;;;1.60;1.10;;;;;15.80;100232.00;;;;2079026;28;20627;-55
2023/01/10 01:52:45;;;;;;;1.52;1.33;;;;;15.80;100236.00;;;;2078433;28;20217;-56
2023/01/10 01:53:47;;;;;;;1.60;1.20;;;;;15.80;100234.00;;;;2069666;28;20210;-56
2023/01/10 01:54:48;;;;;;;1.52;1.13;;;;;15.70;100241.00;;;;2070415;28;20268;-52
2023/01/10 01:55:48;;;;;;;1.50;1.17;;;;;15.80;100244.00;;;;2075907;28;20253;-53
2023/01/10 01:56:51;;;;;;;1.10;1.00;;;;;15.70;100235.00;;;;2071286;28;20275;-54
2023/01/10 01:57:53;;;;;;;1.50;1.02;;;;;15.80;100244.00;;;;2069544;28;20299;-52
2023/01/10 01:58:58;;;;;;;1.15;1.02;;;;;15.70;100237.00;;;;2070228;28;20218;-56
2023/01/10 01:59:58;;;;;;;2.15;1.48;;;;;15.70;100241.00;;;;2077806;28;20336;-56
2023/01/10 02:00:58;;;;;;;2.17;1.43;;;;;15.70;100243.00;;;;2078912;28;20217;-56
2023/01/10 02:02:04;;;;;;;1.47;1.00;;;;;15.70;100247.00;;;;2077695;28;20201;-55
2023/01/10 02:03:05;;;;;;;1.30;1.10;;;;;15.70;100246.00;;;;2078319;28;20706;-56
2023/01/10 02:04:09;;;;;;;1.43;0.90;;;;;15.70;100250.00;;;;2069858;28;20214;-56
2023/01/10 02:05:10;;;;;;;2.10;1.40;;;;;15.70;100248.00;;;;2078108;28;20220;-55
2023/01/10 02:06:11;;;;;;;1.50;1.10;;;;;15.80;100258.00;;;;2078644;28;20445;-53
2023/01/10 02:07:11;;;;;;;2.63;1.10;;;;;15.80;100251.00;;;;2077956;28;20546;-54
2023/01/10 02:08:12;;;;;;;1.87;1.33;;;;;15.80;100253.00;;;;2061755;28;20211;-55
2023/01/10 02:09:25;;;;;;;1.93;1.10;;;;;15.70;100248.00;;;;2062865;28;20257;-54
2023/01/10 02:10:30;;;;;;;1.98;1.02;;;;;15.70;100253.00;;;;2071228;28;20217;-56
2023/01/10 02:11:31;;;;;;;1.40;1.00;;;;;15.70;100247.00;;;;2053306;28;20215;-53
2023/01/10 02:12:31;;;;;;;1.13;0.80;;;;;15.80;100247.00;;;;2068593;28;20269;-53
2023/01/10 02:13:31;;;;;;;1.70;0.97;;;;;15.70;100256.00;;;;2062244;28;20218;-54
2023/01/10 02:14:32;;;;;;;1.37;1.03;;;;;15.70;100250.00;;;;2059038;28;20222;-54
2023/01/10 02:15:32;;;;;;;1.87;0.97;;;;;15.70;100250.00;;;;2062097;28;20326;-55
2023/01/10 02:16:32;;;;;;;1.60;1.27;;;;;15.70;100249.00;;;;2070659;28;20690;-53
2023/01/10 02:17:32;;;;;;;1.50;0.97;;;;;15.70;100222.00;;;;2071267;28;20679;-56
2023/01/10 02:18:34;;;;;;;1.50;1.07;;;;;15.70;100259.00;;;;2070686;28;20728;-53
2023/01/10 02:19:54;;;;;;;1.90;1.15;;;;;15.70;100266.00;;;;2070829;28;20214;-56
2023/01/10 02:21:00;;;;;;;1.80;1.20;;;;;15.70;100275.00;;;;2070063;28;20315;-53
2023/01/10 02:22:06;;;;;;;1.48;1.00;;;;;15.70;100268.00;;;;2068729;28;20210;-56
2023/01/10 02:23:12;;;;;;;1.30;1.15;;;;;15.70;100265.00;;;;2078098;28;20213;-55
2023/01/10 02:24:30;;;;;;;1.75;1.33;;;;;15.80;100257.00;;;;2076581;28;20875;-53
2023/01/10 02:25:59;;;;;;;1.77;1.25;;;;;15.80;100267.00;;;;2074108;28;20686;-56
2023/01/10 02:27:34;;;;;;;1.55;1.10;;;;;15.80;100271.00;;;;2074216;28;20217;-55
2023/01/10 02:29:16;;;;;;;1.75;1.02;;;;;15.80;100273.00;;;;2064383;28;20623;-52
2023/01/10 02:30:35;;;;;;;2.00;1.10;;;;;15.70;100262.00;;;;2076682;28;20760;-55
2023/01/10 02:32:02;;;;;;;2.15;1.10;;;;;15.70;100270.00;;;;2077668;28;20275;-53
2023/01/10 02:33:14;;;;;;;1.30;1.00;;;;;15.80;100268.00;;;;2073207;28;20229;-55
2023/01/10 02:34:35;;;;;;;1.92;1.10;;;;;15.80;100271.00;;;;2073763;28;20213;-54
2023/01/10 02:35:55;;;;;;;2.58;1.10;;;;;15.80;100273.00;;;;2071893;28;20218;-56
2023/01/10 02:37:12;;;;;;;1.20;1.00;;;;;15.80;100262.00;;;;2071879;28;20251;-54
2023/01/10 02:38:26;;;;;;;2.72;1.17;;;;;15.80;100271.00;;;;2063580;28;20718;-55
2023/01/10 02:39:48;;;;;;;1.40;1.13;;;;;15.70;100270.00;;;;2056827;28;20219;-56
2023/01/10 02:40:57;;;;;;;2.53;1.40;;;;;15.70;100272.00;;;;2073626;28;20347;-56
2023/01/10 02:42:21;;;;;;;1.80;1.20;;;;;15.80;100275.00;;;;2076516;28;20670;-55
2023/01/10 02:43:28;;;;;;;1.65;1.00;;;;;15.70;100273.00;;;;2077587;28;20699;-55
2023/01/10 02:44:58;;;;;;;1.55;1.20;;;;;15.80;100273.00;;;;2069495;28;20305;-56
2023/01/10 02:46:02;;;;;;;1.70;1.23;;;;;15.80;100272.00;;;;2073837;28;20261;-56
2023/01/10 02:47:03;;;;;;;1.60;1.13;;;;;15.80;100276.00;;;;2078305;28;20820;-56
2023/01/10 02:48:03;;;;;;;1.20;0.90;;;;;15.80;100271.00;;;;2077962;28;20219;-56
2023/01/10 02:49:04;;;;;;;1.17;1.00;;;;;15.60;100270.00;;;;2069198;28;20312;-56
2023/01/10 02:50:34;;;;;;;1.77;1.20;;;;;15.70;100279.00;;;;2077827;28;20322;-56
2023/01/10 02:51:35;;;;;;;1.83;1.08;;;;;15.80;100279.00;;;;2077401;28;20219;-54
2023/01/10 02:52:35;;;;;;;1.30;1.20;;;;;15.80;100279.00;;;;2077351;28;20248;-55
2023/01/10 02:53:37;;;;;;;1.73;1.20;;;;;15.80;100282.00;;;;2078063;28;20252;-53
2023/01/10 02:54:37;;;;;;;2.38;1.40;;;;;15.70;100282.00;;;;2078096;28;20721;-54
2023/01/10 02:55:54;;;;;;;1.90;1.10;;;;;15.70;100277.00;;;;2077513;28;20217;-53
2023/01/10 02:57:26;;;;;;;1.17;0.90;;;;;15.80;100286.00;;;;2071365;28;20233;-56
2023/01/10 02:58:50;;;;;;;1.60;1.23;;;;;15.70;100283.00;;;;2077973;28;22940;-56
2023/01/10 03:00:17;;;;;;;2.15;1.00;;;;;15.70;100285.00;;;;2077651;28;20237;-55
2023/01/10 03:01:38;;;;;;;1.70;1.10;;;;;15.70;100283.00;;;;2073257;28;20296;-54
2023/01/10 03:03:21;;;;;;;1.42;1.23;;;;;15.70;100284.00;;;;2076526;28;20208;-56
2023/01/10 03:04:25;;;;;;;1.55;1.40;;;;;15.70;100288.00;;;;2077097;28;20215;-52
2023/01/10 03:05:49;;;;;;;1.45;1.30;;;;;15.70;100272.00;;;;2083004;28;20267;-56
2023/01/10 03:07:18;;;;;;;2.17;1.20;;;;;15.70;100291.00;;;;2076110;28;20213;-56
2023/01/10 03:08:24;;;;;;;2.15;1.20;;;;;15.70;100292.00;;;;2066836;28;20214;-56
2023/01/10 03:09:28;;;;;;;3.92;1.20;;;;;15.70;100282.00;;;;2070451;28;20206;-55
2023/01/10 03:10:36;;;;;;;1.67;1.00;;;;;15.70;100304.00;;;;2070669;28;20233;-56
2023/01/10 03:11:39;;;;;;;1.50;1.30;;;;;15.70;100299.00;;;;2062435;28;20218;-55
2023/01/10 03:12:45;;;;;;;1.27;1.00;;;;;15.70;100292.00;;;;2052945;28;20230;-55
2023/01/10 03:13:50;;;;;;;1.70;0.95;;;;;15.70;100305.00;;;;2070845;28;20785;-56
2023/01/10 03:14:50;;;;;;;1.92;1.15;;;;;15.70;100307.00;;;;2069716;28;20595;-54
2023/01/10 03:15:50;;;;;;;1.70;1.20;;;;;15.70;100302.00;;;;2058322;28;20215;-56
2023/01/10 03:16:59;;;;;;;2.03;1.00;;;;;15.70;100309.00;;;;2069571;28;20420;-55
2023/01/10 03:18:02;;;;;;;2.65;1.63;;;;;15.70;100303.00;;;;2069475;28;20218;-53
2023/01/10 03:19:03;;;;;;;1.88;1.20;;;;;15.70;100318.00;;;;2069343;28;20405;-53
2023/01/10 03:20:04;;;;;;;3.05;1.23;;;;;15.70;100306.00;;;;2068991;28;20304;-54
2023/01/10 03:21:05;;;;;;;1.23;1.07;;;;;15.70;100303.00;;;;2069794;28;20225;-53
2023/01/10 03:22:05;;;;;;;1.47;1.23;;;;;15.70;100319.00;;;;2068443;28;20453;-56
2023/01/10 03:23:05;;;;;;;2.00;1.10;;;;;15.70;100313.00;;;;2069484;28;20209;-56
2023/01/10 03:24:17;;;;;;;1.57;1.07;;;;;15.70;100314.00;;;;2078271;28;20245;-52
2023/01/10 03:25:18;;;;;;;1.48;1.10;;;;;15.70;100335.00;;;;2076215;28;20526;-56
2023/01/10 03:26:24;;;;;;;2.25;1.00;;;;;15.70;100319.00;;;;2069555;28;20210;-55
2023/01/10 03:27:47;;;;;;;1.20;0.90;;;;;15.70;100332.00;;;;2069565;28;20221;-52
2023/01/10 03:28:50;;;;;;;1.40;1.05;;;;;15.70;100336.00;;;;2066492;28;20645;-55
2023/01/10 03:30:01;;;;;;;1.55;0.95;;;;;15.70;100335.00;;;;2062015;28;20680;-56
2023/01/10 03:31:12;;;;;;;1.65;0.98;;;;;15.70;100338.00;;;;2071762;28;20414;-55
2023/01/10 03:32:12;;;;;;;1.65;1.10;;;;;15.70;100335.00;;;;2075480;28;20568;-54
2023/01/10 03:33:14;;;;;;;1.30;1.00;;;;;15.70;100335.00;;;;2068646;28;20302;-52
2023/01/10 03:34:15;;;;;;;1.85;1.20;;;;;15.70;100335.00;;;;2069373;28;20214;-55
2023/01/10 03:35:15;;;;;;;2.30;1.33;;;;;15.70;100332.00;;;;2077798;28;20293;-52
2023/01/10 03:36:32;;;;;;;1.47;0.80;;;;;15.80;100337.00;;;;2077738;28;20263;-54
2023/01/10 03:37:38;;;;;;;1.27;1.00;;;;;15.70;100342.00;;;;2067915;28;20303;-55
2023/01/10 03:38:45;;;;;;;1.30;1.15;;;;;15.70;100336.00;;;;2077198;28;20216;-54
2023/01/10 03:40:06;;;;;;;2.20;1.30;;;;;15.70;100341.00;;;;2070042;28;20214;-56
2023/01/10 03:41:11;;;;;;;1.45;1.10;;;;;15.70;100351.00;;;;2071898;28;20217;-55
2023/01/10 03:42:18;;;;;;;1.30;1.20;;;;;15.70;100344.00;;;;2076403;28;20284;-55
2023/01/10 03:44:49;;;;;;;2.35;1.05;;;;;15.70;100356.00;;;;2067567;28;20225;-52
2023/01/10 03:46:01;;;;;;;1.60;1.10;;;;;15.70;100345.00;;;;2072844;28;20225;-57
2023/01/10 03:47:08;;;;;;;2.58;1.17;;;;;15.70;100347.00;;;;2063551;28;20211;-53
2023/01/10 03:48:09;;;;;;;1.52;1.00;;;;;15.70;100356.00;;;;2070282;28;20783;-55
2023/01/10 03:49:09;;;;;;;1.60;1.13;;;;;15.70;100357.00;;;;2078196;28;20217;-56
2023/01/10 03:50:18;;;;;;;0.90;0.70;;;;;15.70;100347.00;;;;2077570;28;20221;-56
2023/01/10 03:51:19;;;;;;;3.10;1.20;;;;;15.70;100356.00;;;;2070421;28;20243;-56
2023/01/10 03:52:19;;;;;;;1.30;0.90;;;;;15.70;100355.00;;;;2076381;28;20213;-56
2023/01/10 03:53:19;;;;;;;1.63;1.03;;;;;15.70;100355.00;;;;2077503;28;20206;-55
2023/01/10 03:54:20;;;;;;;3.80;1.40;;;;;15.70;100348.00;;;;2077515;28;20251;-54
2023/01/10 03:55:21;;;;;;;1.40;0.80;;;;;15.70;100360.00;;;;2077758;28;20217;-56
2023/01/10 03:56:22;;;;;;;2.28;1.30;;;;;15.70;100374.00;;;;2077377;28;20237;-56
2023/01/10 03:57:23;;;;;;;1.10;0.70;;;;;15.70;100364.00;;;;2077511;28;20748;-54
2023/01/10 03:58:24;;;;;;;1.55;1.17;;;;;15.70;100367.00;;;;2078460;28;20266;-56
2023/01/10 03:59:25;;;;;;;3.20;1.27;;;;;15.70;100363.00;;;;2077661;28;20776;-53
2023/01/10 04:00:25;;;;;;;2.30;1.40;;;;;15.70;100369.00;;;;2069402;28;20225;-56
2023/01/10 04:01:26;;;;;;;2.37;1.30;;;;;15.70;100367.00;;;;2077774;28;20209;-56
2023/01/10 04:02:28;;;;;;;1.33;1.17;;;;;15.70;100368.00;;;;2076877;28;20224;-56
2023/01/10 04:03:28;;;;;;;1.23;0.98;;;;;15.70;100376.00;;;;2078225;28;20816;-54
2023/01/10 04:04:29;;;;;;;1.60;1.07;;;;;15.70;100372.00;;;;2078181;28;20209;-53
2023/01/10 04:05:29;;;;;;;1.73;0.87;;;;;15.70;100375.00;;;;2078068;28;20220;-55
2023/01/10 04:06:29;;;;;;;2.20;1.07;;;;;15.70;100376.00;;;;2078470;28;20297;-55
2023/01/10 04:07:30;;;;;;;0.97;0.80;;;;;15.70;100380.00;;;;2078110;28;20213;-56
2023/01/10 04:08:30;;;;;;;1.17;1.03;;;;;15.70;100384.00;;;;2078167;28;20563;-56
2023/01/10 04:09:30;;;;;;;1.17;1.00;;;;;15.70;100384.00;;;;2078344;28;20736;-55
2023/01/10 04:10:31;;;;;;;2.73;1.40;;;;;15.70;100386.00;;;;2078018;28;20209;-53
2023/01/10 04:11:31;;;;;;;1.40;0.90;;;;;15.70;100380.00;;;;2078002;28;20217;-54
2023/01/10 04:12:32;;;;;;;1.67;1.10;;;;;15.70;100386.00;;;;2076832;28;20225;-56
2023/01/10 04:13:32;;;;;;;2.03;1.40;;;;;15.70;100384.00;;;;2078146;28;20298;-56
2023/01/10 04:14:32;;;;;;;2.60;1.37;;;;;15.70;100389.00;;;;2078149;28;20213;-54
2023/01/10 04:15:33;;;;;;;1.97;1.17;;;;;15.70;100390.00;;;;2078256;28;20929;-53
2023/01/10 04:16:33;;;;;;;2.60;1.17;;;;;15.70;100394.00;;;;2078142;28;20567;-53
2023/01/10 04:17:33;;;;;;;1.43;1.10;;;;;15.70;100388.00;;;;2077991;28;20267;-55
2023/01/10 04:18:34;;;;;;;1.93;1.27;;;;;15.70;100395.00;;;;2078299;28;20217;-55
2023/01/10 04:19:34;;;;;;;1.80;1.27;;;;;15.70;100400.00;;;;2078153;28;20355;-56
2023/01/10 04:20:34;;;;;;;2.83;1.37;;;;;15.70;100395.00;;;;2077812;28;20209;-53
2023/01/10 04:21:35;;;;;;;2.20;1.00;;;;;15.70;100403.00;;;;2078291;28;20209;-55
2023/01/10 04:22:35;;;;;;;2.17;1.27;;;;;15.70;100410.00;;;;2077072;28;20252;-55
2023/01/10 04:23:35;;;;;;;2.03;1.27;;;;;15.70;100404.00;;;;2078380;28;20205;-56
2023/01/10 04:24:36;;;;;;;2.47;1.50;;;;;15.70;100394.00;;;;2077304;28;20216;-53
2023/01/10 04:25:36;;;;;;;1.30;0.80;;;;;15.70;100405.00;;;;2077275;28;20307;-55
2023/01/10 04:26:36;;;;;;;2.23;1.23;;;;;15.70;100408.00;;;;2077910;28;20308;-56
2023/01/10 04:27:37;;;;;;;2.30;1.10;;;;;15.70;100407.00;;;;2078183;28;20608;-55
2023/01/10 04:28:37;;;;;;;1.93;1.20;;;;;15.70;100406.00;;;;2077037;28;20725;-55
2023/01/10 04:29:37;;;;;;;2.50;1.10;;;;;15.70;100406.00;;;;2077303;28;20209;-55
2023/01/10 04:30:38;;;;;;;2.90;1.43;;;;;15.70;100402.00;;;;2078159;28;20672;-52
2023/01/10 04:31:41;;;;;;;2.43;1.67;;;;;15.70;100396.00;;;;2078178;28;20583;-54
2023/01/10 04:32:41;;;;;;;1.40;1.00;;;;;15.70;100397.00;;;;2076990;28;20241;-56
2023/01/10 04:33:42;;;;;;;2.00;1.00;;;;;15.70;100397.00;;;;2077852;28;20217;-54
2023/01/10 04:34:42;;;;;;;1.87;1.00;;;;;15.70;100401.00;;;;2078165;28;20224;-54
2023/01/10 04:35:49;;;;;;;3.03;1.17;;;;;15.70;100404.00;;;;2078090;28;20221;-53
2023/01/10 04:36:49;;;;;;;1.73;1.17;;;;;15.70;100407.00;;;;2077966;28;20217;-54
2023/01/10 04:37:49;;;;;;;2.07;1.30;;;;;15.70;100410.00;;;;2077807;28;20301;-56
2023/01/10 04:38:50;;;;;;;2.10;0.90;;;;;15.70;100408.00;;;;2078004;28;20693;-56
2023/01/10 04:39:50;;;;;;;2.10;1.43;;;;;15.70;100406.00;;;;2078093;28;20209;-54
2023/01/10 04:40:55;;;;;;;2.10;1.17;;;;;15.70;100401.00;;;;2075580;28;20270;-56
2023/01/10 04:41:55;;;;;;;1.73;1.15;;;;;15.70;100410.00;;;;2076640;28;20205;-56
2023/01/10 04:42:55;;;;;;;2.10;1.20;;;;;15.70;100406.00;;;;2078179;28;20205;-56
2023/01/10 04:43:56;;;;;;;1.70;1.10;;;;;15.70;100408.00;;;;2078189;28;20301;-54
2023/01/10 04:44:56;;;;;;;1.00;0.80;;;;;15.70;100409.00;;;;2077991;28;20279;-55
2023/01/10 04:45:56;;;;;;;1.90;0.97;;;;;15.70;100409.00;;;;2077081;28;20224;-54
2023/01/10 04:46:57;;;;;;;1.97;1.03;;;;;15.70;100409.00;;;;2078257;28;20626;-53
2023/01/10 04:47:58;;;;;;;1.80;1.03;;;;;15.70;100408.00;;;;2077770;28;20252;-56
2023/01/10 04:48:59;;;;;;;1.77;1.08;;;;;15.70;100410.00;;;;2077946;28;20239;-53
2023/01/10 04:49:59;;;;;;;1.40;1.20;;;;;15.70;100408.00;;;;2078157;28;20665;-56
2023/01/10 04:51:00;;;;;;;1.80;1.03;;;;;15.70;100413.00;;;;2076208;28;20209;-56
2023/01/10 04:52:00;;;;;;;1.13;0.80;;;;;15.70;100408.00;;;;2076956;28;20259;-56
2023/01/10 04:53:00;;;;;;;1.87;1.10;;;;;15.70;100405.00;;;;2077844;28;20308;-53
2023/01/10 04:54:01;;;;;;;1.63;0.90;;;;;15.70;100412.00;;;;2077986;28;20209;-56
2023/01/10 04:55:01;;;;;;;2.33;1.13;;;;;15.70;100411.00;;;;2078149;28;20221;-55
2023/01/10 04:56:03;;;;;;;1.50;0.97;;;;;15.70;100412.00;;;;2077776;28;20221;-54
2023/01/10 04:57:05;;;;;;;1.58;1.00;;;;;15.70;100412.00;;;;2077620;28;20210;-53
2023/01/10 04:58:05;;;;;;;1.95;1.10;;;;;15.70;100408.00;;;;2077894;28;20210;-52
2023/01/10 04:59:06;;;;;;;1.53;1.00;;;;;15.70;100414.00;;;;2078066;28;20393;-54
2023/01/10 05:00:07;;;;;;;2.87;1.13;;;;;15.70;100416.00;;;;2079355;28;20574;-56
2023/01/10 05:01:20;;;;;;;2.05;1.10;;;;;15.70;100419.00;;;;2073160;28;20797;-52
2023/01/10 05:02:21;;;;;;;1.15;0.85;;;;;15.70;100420.00;;;;2078512;28;20221;-55
2023/01/10 05:03:21;;;;;;;3.53;1.10;;;;;15.70;100427.00;;;;2079513;28;20760;-53
2023/01/10 05:04:21;;;;;;;2.27;1.23;;;;;15.70;100417.00;;;;2079469;28;20628;-54
2023/01/10 05:05:22;;;;;;;1.73;1.00;;;;;15.70;100426.00;;;;2079403;28;20694;-53
2023/01/10 05:06:23;;;;;;;1.87;1.30;;;;;15.70;100426.00;;;;2079409;28;20217;-54
2023/01/10 05:07:23;;;;;;;1.40;1.17;;;;;15.70;100439.00;;;;2077928;28;20302;-56
2023/01/10 05:08:23;;;;;;;1.23;0.90;;;;;15.70;100427.00;;;;2069908;28;20462;-56
2023/01/10 05:09:24;;;;;;;1.57;1.00;;;;;15.70;100437.00;;;;2078419;28;20217;-53
2023/01/10 05:10:24;;;;;;;1.57;0.90;;;;;15.70;100443.00;;;;2079371;28;20220;-54
2023/01/10 05:11:24;;;;;;;2.47;1.20;;;;;15.70;100436.00;;;;2079361;28;20209;-55
2023/01/10 05:12:25;;;;;;;1.97;1.00;;;;;15.70;100442.00;;;;2077959;28;20244;-56
2023/01/10 05:13:25;;;;;;;1.10;1.00;;;;;15.70;100440.00;;;;2079295;28;20216;-56
2023/01/10 05:14:25;;;;;;;3.00;1.27;;;;;15.70;100438.00;;;;2079144;28;20214;-56
2023/01/10 05:15:26;;;;;;;2.27;1.10;;;;;15.70;100439.00;;;;2079428;28;20218;-56
2023/01/10 05:16:27;;;;;;;2.60;1.37;;;;;15.70;100443.00;;;;2079318;28;20213;-52
2023/01/10 05:17:27;;;;;;;2.30;1.08;;;;;15.70;100428.00;;;;2079222;28;20320;-56
2023/01/10 05:18:28;;;;;;;2.53;1.10;;;;;15.70;100438.00;;;;2079394;28;20819;-56
2023/01/10 05:19:28;;;;;;;1.87;1.17;;;;;15.70;100447.00;;;;2077657;28;20926;-58
2023/01/10 05:20:28;;;;;;;3.13;1.30;;;;;15.60;100447.00;;;;2078477;28;20225;-52
2023/01/10 05:21:29;;;;;;;2.20;1.10;;;;;15.70;100449.00;;;;2079425;28;20217;-55
2023/01/10 05:22:29;;;;;;;1.57;0.80;;;;;15.70;100444.00;;;;2077926;28;20217;-54
2023/01/10 05:23:29;;;;;;;2.10;1.43;;;;;15.60;100458.00;;;;2079213;28;20625;-56
2023/01/10 05:24:30;;;;;;;1.40;0.80;;;;;15.70;100456.00;;;;2079013;28;20647;-54